CYXY

Whitehorse / Erik Nielsen International Airport

Whitehorse, , Canada
METAR CYXY 201400Z 00000KT 40SM SCT140 BKN220 10/06 A3023 RMK AC3CI4 SLP254
Observed Flight Rules
Jul-20 @ 14:00 UTC (37 minutes ago) Visual Flight Rules
Visibility Clouds
40 miles
  • Scattered at 14,000' AGL
  • Broken at 22,000' AGL
Temperatures Readings
Current 10°C / 50°F
Dewpoint 6°C / 43°F
Humidity 76%
Altimeter 30.23" Hg
Pressure 1025.4 hPa
Elevation 703
METAR CYXY 201400Z 00000KT 40SM SCT140 BKN220 10/06 A3023 RMK AC3CI4 SLP254
Observed Flight Rules
Jul-20 @ 14:00 UTC
(37 minutes ago)
VFR
Clouds
  • Scattered at 14,000' AGL
  • Broken at 22,000' AGL
Temperature Dewpoint
10°C / 50°F 6°C / 43°F
Humidity Altimeter Pressure
76% 30.23" Hg 1025.4 hPa